sensor_id;sensor_type;location;lat;lon;timestamp;P1;durP1;ratioP1;P2;durP2;ratioP2
13989;SDS011;7069;52.528;13.316;2022-08-21T00:01:12;4.97;;;4.35;;
13989;SDS011;7069;52.528;13.316;2022-08-21T00:03:40;5.00;;;4.60;;
13989;SDS011;7069;52.528;13.316;2022-08-21T00:06:08;5.25;;;4.53;;
13989;SDS011;7069;52.528;13.316;2022-08-21T00:08:34;7.18;;;4.75;;
13989;SDS011;7069;52.528;13.316;2022-08-21T00:11:01;4.85;;;4.45;;
13989;SDS011;7069;52.528;13.316;2022-08-21T00:13:27;5.35;;;4.95;;
13989;SDS011;7069;52.528;13.316;2022-08-21T00:15:54;5.65;;;5.25;;
13989;SDS011;7069;52.528;13.316;2022-08-21T00:18:20;5.55;;;5.05;;
13989;SDS011;7069;52.528;13.316;2022-08-21T00:20:47;5.10;;;4.70;;
13989;SDS011;7069;52.528;13.316;2022-08-21T00:23:15;5.03;;;4.63;;
13989;SDS011;7069;52.528;13.316;2022-08-21T00:25:42;5.93;;;5.40;;
13989;SDS011;7069;52.528;13.316;2022-08-21T00:28:08;5.15;;;4.75;;
13989;SDS011;7069;52.528;13.316;2022-08-21T00:30:35;5.90;;;5.30;;
13989;SDS011;7069;52.528;13.316;2022-08-21T00:33:02;5.82;;;4.93;;
13989;SDS011;7069;52.528;13.316;2022-08-21T00:35:30;6.07;;;5.57;;
13989;SDS011;7069;52.528;13.316;2022-08-21T00:37:57;5.75;;;5.10;;
13989;SDS011;7069;52.528;13.316;2022-08-21T00:40:26;5.55;;;5.15;;
13989;SDS011;7069;52.528;13.316;2022-08-21T00:42:53;5.18;;;4.65;;
13989;SDS011;7069;52.528;13.316;2022-08-21T00:45:20;6.25;;;5.65;;
13989;SDS011;7069;52.528;13.316;2022-08-21T00:47:47;5.80;;;5.30;;
13989;SDS011;7069;52.528;13.316;2022-08-21T00:50:13;5.97;;;5.47;;
13989;SDS011;7069;52.528;13.316;2022-08-21T00:52:40;6.68;;;6.03;;
13989;SDS011;7069;52.528;13.316;2022-08-21T00:55:07;6.25;;;5.75;;
13989;SDS011;7069;52.528;13.316;2022-08-21T00:57:38;6.47;;;5.88;;
13989;SDS011;7069;52.528;13.316;2022-08-21T01:00:07;5.90;;;5.40;;
13989;SDS011;7069;52.528;13.316;2022-08-21T01:02:35;6.47;;;5.88;;
13989;SDS011;7069;52.528;13.316;2022-08-21T01:05:01;6.78;;;5.93;;
13989;SDS011;7069;52.528;13.316;2022-08-21T01:07:28;7.28;;;6.65;;
13989;SDS011;7069;52.528;13.316;2022-08-21T01:09:55;6.38;;;5.78;;
13989;SDS011;7069;52.528;13.316;2022-08-21T01:12:21;6.65;;;6.05;;
13989;SDS011;7069;52.528;13.316;2022-08-21T01:14:49;7.03;;;6.43;;
13989;SDS011;7069;52.528;13.316;2022-08-21T01:17:16;6.28;;;5.75;;
13989;SDS011;7069;52.528;13.316;2022-08-21T01:19:43;6.97;;;6.38;;
13989;SDS011;7069;52.528;13.316;2022-08-21T01:22:11;7.45;;;5.78;;
13989;SDS011;7069;52.528;13.316;2022-08-21T01:24:38;6.43;;;5.93;;
13989;SDS011;7069;52.528;13.316;2022-08-21T01:27:04;6.18;;;5.68;;
13989;SDS011;7069;52.528;13.316;2022-08-21T01:29:32;7.13;;;6.35;;
13989;SDS011;7069;52.528;13.316;2022-08-21T01:32:03;7.15;;;6.55;;
13989;SDS011;7069;52.528;13.316;2022-08-21T01:34:29;7.00;;;6.45;;
13989;SDS011;7069;52.528;13.316;2022-08-21T01:36:56;6.68;;;6.18;;
13989;SDS011;7069;52.528;13.316;2022-08-21T01:39:23;5.88;;;5.43;;
13989;SDS011;7069;52.528;13.316;2022-08-21T01:41:50;6.55;;;5.85;;
13989;SDS011;7069;52.528;13.316;2022-08-21T01:44:19;6.72;;;6.13;;
13989;SDS011;7069;52.528;13.316;2022-08-21T01:46:46;5.55;;;5.15;;
13989;SDS011;7069;52.528;13.316;2022-08-21T01:49:13;6.82;;;5.80;;
13989;SDS011;7069;52.528;13.316;2022-08-21T01:51:40;9.60;;;6.25;;
13989;SDS011;7069;52.528;13.316;2022-08-21T01:54:06;6.70;;;6.13;;
13989;SDS011;7069;52.528;13.316;2022-08-21T01:56:36;5.55;;;5.03;;
13989;SDS011;7069;52.528;13.316;2022-08-21T01:59:03;5.70;;;5.28;;
13989;SDS011;7069;52.528;13.316;2022-08-21T02:01:29;5.43;;;5.00;;
13989;SDS011;7069;52.528;13.316;2022-08-21T02:03:56;5.00;;;4.60;;
13989;SDS011;7069;52.528;13.316;2022-08-21T02:06:23;6.10;;;5.13;;
13989;SDS011;7069;52.528;13.316;2022-08-21T02:08:49;4.82;;;4.32;;
13989;SDS011;7069;52.528;13.316;2022-08-21T02:11:16;4.57;;;4.18;;
13989;SDS011;7069;52.528;13.316;2022-08-21T02:13:43;5.32;;;4.35;;
13989;SDS011;7069;52.528;13.316;2022-08-21T02:16:10;4.80;;;4.38;;
13989;SDS011;7069;52.528;13.316;2022-08-21T02:18:36;4.55;;;4.15;;
13989;SDS011;7069;52.528;13.316;2022-08-21T02:21:04;4.95;;;3.95;;
13989;SDS011;7069;52.528;13.316;2022-08-21T02:23:31;5.05;;;4.50;;
13989;SDS011;7069;52.528;13.316;2022-08-21T02:25:57;5.18;;;4.38;;
13989;SDS011;7069;52.528;13.316;2022-08-21T02:28:24;5.82;;;4.00;;
13989;SDS011;7069;52.528;13.316;2022-08-21T02:30:52;4.90;;;4.40;;
13989;SDS011;7069;52.528;13.316;2022-08-21T02:33:19;5.25;;;4.35;;
13989;SDS011;7069;52.528;13.316;2022-08-21T02:35:46;4.32;;;3.92;;
13989;SDS011;7069;52.528;13.316;2022-08-21T02:38:14;4.32;;;3.92;;
13989;SDS011;7069;52.528;13.316;2022-08-21T02:40:43;4.78;;;4.32;;
13989;SDS011;7069;52.528;13.316;2022-08-21T02:43:10;6.07;;;4.35;;
13989;SDS011;7069;52.528;13.316;2022-08-21T02:45:38;4.78;;;3.92;;
13989;SDS011;7069;52.528;13.316;2022-08-21T02:48:07;5.22;;;4.35;;
13989;SDS011;7069;52.528;13.316;2022-08-21T02:50:35;3.90;;;3.53;;
13989;SDS011;7069;52.528;13.316;2022-08-21T02:53:02;3.95;;;3.65;;
13989;SDS011;7069;52.528;13.316;2022-08-21T02:55:30;3.88;;;3.58;;
13989;SDS011;7069;52.528;13.316;2022-08-21T02:57:56;4.57;;;4.18;;
13989;SDS011;7069;52.528;13.316;2022-08-21T03:00:25;5.70;;;3.70;;
13989;SDS011;7069;52.528;13.316;2022-08-21T03:02:52;5.07;;;4.07;;
13989;SDS011;7069;52.528;13.316;2022-08-21T03:05:19;3.83;;;3.53;;
13989;SDS011;7069;52.528;13.316;2022-08-21T03:07:48;5.47;;;4.03;;
13989;SDS011;7069;52.528;13.316;2022-08-21T03:10:15;4.38;;;3.97;;
13989;SDS011;7069;52.528;13.316;2022-08-21T03:12:41;6.38;;;3.75;;
13989;SDS011;7069;52.528;13.316;2022-08-21T03:15:09;3.80;;;3.50;;
13989;SDS011;7069;52.528;13.316;2022-08-21T03:17:35;5.07;;;3.33;;
13989;SDS011;7069;52.528;13.316;2022-08-21T03:20:02;3.42;;;3.13;;
13989;SDS011;7069;52.528;13.316;2022-08-21T03:22:30;3.80;;;3.17;;
13989;SDS011;7069;52.528;13.316;2022-08-21T03:24:57;3.25;;;3.05;;
13989;SDS011;7069;52.528;13.316;2022-08-21T03:27:24;5.47;;;3.42;;
13989;SDS011;7069;52.528;13.316;2022-08-21T03:29:51;3.28;;;2.80;;
13989;SDS011;7069;52.528;13.316;2022-08-21T03:32:18;8.68;;;3.60;;
13989;SDS011;7069;52.528;13.316;2022-08-21T03:34:44;4.80;;;2.90;;
13989;SDS011;7069;52.528;13.316;2022-08-21T03:37:11;3.42;;;3.13;;
13989;SDS011;7069;52.528;13.316;2022-08-21T03:39:39;3.83;;;3.40;;
13989;SDS011;7069;52.528;13.316;2022-08-21T03:42:06;4.03;;;2.92;;
13989;SDS011;7069;52.528;13.316;2022-08-21T03:44:33;5.18;;;2.90;;
13989;SDS011;7069;52.528;13.316;2022-08-21T03:46:59;3.05;;;2.83;;
13989;SDS011;7069;52.528;13.316;2022-08-21T03:49:26;5.45;;;3.10;;
13989;SDS011;7069;52.528;13.316;2022-08-21T03:51:52;8.07;;;3.00;;
13989;SDS011;7069;52.528;13.316;2022-08-21T03:54:19;3.17;;;2.75;;
13989;SDS011;7069;52.528;13.316;2022-08-21T03:56:47;3.20;;;3.00;;
13989;SDS011;7069;52.528;13.316;2022-08-21T03:59:13;5.38;;;3.20;;
13989;SDS011;7069;52.528;13.316;2022-08-21T04:01:40;3.10;;;2.80;;
13989;SDS011;7069;52.528;13.316;2022-08-21T04:04:16;3.78;;;3.10;;
13989;SDS011;7069;52.528;13.316;2022-08-21T04:06:42;3.47;;;3.13;;
13989;SDS011;7069;52.528;13.316;2022-08-21T04:09:09;4.47;;;2.72;;
13989;SDS011;7069;52.528;13.316;2022-08-21T04:11:35;4.38;;;2.70;;
13989;SDS011;7069;52.528;13.316;2022-08-21T04:14:03;2.63;;;2.42;;
13989;SDS011;7069;52.528;13.316;2022-08-21T04:16:29;3.20;;;2.88;;
13989;SDS011;7069;52.528;13.316;2022-08-21T04:18:56;6.28;;;2.95;;
13989;SDS011;7069;52.528;13.316;2022-08-21T04:21:22;3.40;;;2.92;;
13989;SDS011;7069;52.528;13.316;2022-08-21T04:23:49;3.85;;;3.00;;
13989;SDS011;7069;52.528;13.316;2022-08-21T04:26:15;4.07;;;3.00;;
13989;SDS011;7069;52.528;13.316;2022-08-21T04:28:42;2.85;;;2.50;;
13989;SDS011;7069;52.528;13.316;2022-08-21T04:31:10;3.90;;;2.95;;
13989;SDS011;7069;52.528;13.316;2022-08-21T04:33:36;6.43;;;3.10;;
13989;SDS011;7069;52.528;13.316;2022-08-21T04:36:03;3.45;;;2.55;;
13989;SDS011;7069;52.528;13.316;2022-08-21T04:38:29;4.82;;;3.10;;
13989;SDS011;7069;52.528;13.316;2022-08-21T04:40:57;4.53;;;2.50;;
13989;SDS011;7069;52.528;13.316;2022-08-21T04:43:23;2.78;;;2.53;;
13989;SDS011;7069;52.528;13.316;2022-08-21T04:45:50;3.03;;;2.83;;
13989;SDS011;7069;52.528;13.316;2022-08-21T04:48:19;2.92;;;2.63;;
13989;SDS011;7069;52.528;13.316;2022-08-21T04:50:47;3.33;;;2.38;;
13989;SDS011;7069;52.528;13.316;2022-08-21T04:53:18;9.50;;;3.15;;
13989;SDS011;7069;52.528;13.316;2022-08-21T04:55:45;3.88;;;2.83;;
13989;SDS011;7069;52.528;13.316;2022-08-21T04:58:13;4.13;;;2.65;;
13989;SDS011;7069;52.528;13.316;2022-08-21T05:00:41;2.78;;;2.58;;
13989;SDS011;7069;52.528;13.316;2022-08-21T05:03:07;3.25;;;2.65;;
13989;SDS011;7069;52.528;13.316;2022-08-21T05:05:36;5.13;;;2.63;;
13989;SDS011;7069;52.528;13.316;2022-08-21T05:08:03;9.65;;;3.25;;
13989;SDS011;7069;52.528;13.316;2022-08-21T05:10:29;5.82;;;2.92;;
13989;SDS011;7069;52.528;13.316;2022-08-21T05:12:57;7.55;;;3.03;;
13989;SDS011;7069;52.528;13.316;2022-08-21T05:15:23;7.18;;;2.97;;
13989;SDS011;7069;52.528;13.316;2022-08-21T05:17:50;5.93;;;2.67;;
13989;SDS011;7069;52.528;13.316;2022-08-21T05:20:16;2.75;;;2.20;;
13989;SDS011;7069;52.528;13.316;2022-08-21T05:22:44;4.00;;;2.53;;
13989;SDS011;7069;52.528;13.316;2022-08-21T05:25:11;6.15;;;2.53;;
13989;SDS011;7069;52.528;13.316;2022-08-21T05:27:38;4.03;;;2.65;;
13989;SDS011;7069;52.528;13.316;2022-08-21T05:30:05;4.60;;;2.40;;
13989;SDS011;7069;52.528;13.316;2022-08-21T05:32:32;2.65;;;2.33;;
13989;SDS011;7069;52.528;13.316;2022-08-21T05:34:58;4.03;;;2.53;;
13989;SDS011;7069;52.528;13.316;2022-08-21T05:37:25;2.60;;;2.33;;
13989;SDS011;7069;52.528;13.316;2022-08-21T05:39:52;3.75;;;2.60;;
13989;SDS011;7069;52.528;13.316;2022-08-21T05:42:19;3.05;;;2.53;;
13989;SDS011;7069;52.528;13.316;2022-08-21T05:44:45;3.03;;;2.72;;
13989;SDS011;7069;52.528;13.316;2022-08-21T05:47:11;5.82;;;2.20;;
13989;SDS011;7069;52.528;13.316;2022-08-21T05:49:38;3.38;;;2.85;;
13989;SDS011;7069;52.528;13.316;2022-08-21T05:52:04;2.50;;;2.30;;
13989;SDS011;7069;52.528;13.316;2022-08-21T05:54:31;3.70;;;2.42;;
13989;SDS011;7069;52.528;13.316;2022-08-21T05:56:59;4.72;;;2.22;;
13989;SDS011;7069;52.528;13.316;2022-08-21T05:59:25;8.32;;;2.65;;
13989;SDS011;7069;52.528;13.316;2022-08-21T06:01:52;2.80;;;2.50;;
13989;SDS011;7069;52.528;13.316;2022-08-21T06:04:19;3.42;;;2.30;;
13989;SDS011;7069;52.528;13.316;2022-08-21T06:06:45;4.13;;;2.88;;
13989;SDS011;7069;52.528;13.316;2022-08-21T06:09:12;2.65;;;2.03;;
13989;SDS011;7069;52.528;13.316;2022-08-21T06:11:38;2.95;;;2.40;;
13989;SDS011;7069;52.528;13.316;2022-08-21T06:14:06;5.10;;;3.55;;
13989;SDS011;7069;52.528;13.316;2022-08-21T06:16:32;4.90;;;2.67;;
13989;SDS011;7069;52.528;13.316;2022-08-21T06:18:59;6.70;;;2.92;;
13989;SDS011;7069;52.528;13.316;2022-08-21T06:21:25;5.38;;;3.03;;
13989;SDS011;7069;52.528;13.316;2022-08-21T06:23:51;6.55;;;2.72;;
13989;SDS011;7069;52.528;13.316;2022-08-21T06:26:18;6.75;;;2.85;;
13989;SDS011;7069;52.528;13.316;2022-08-21T06:28:45;4.90;;;2.40;;
13989;SDS011;7069;52.528;13.316;2022-08-21T06:31:14;2.65;;;2.45;;
13989;SDS011;7069;52.528;13.316;2022-08-21T06:33:41;2.72;;;2.08;;
13989;SDS011;7069;52.528;13.316;2022-08-21T06:36:07;3.03;;;2.72;;
13989;SDS011;7069;52.528;13.316;2022-08-21T06:38:34;4.05;;;2.65;;
13989;SDS011;7069;52.528;13.316;2022-08-21T06:41:00;4.40;;;2.63;;
13989;SDS011;7069;52.528;13.316;2022-08-21T06:43:27;4.50;;;2.42;;
13989;SDS011;7069;52.528;13.316;2022-08-21T06:45:53;5.90;;;2.97;;
13989;SDS011;7069;52.528;13.316;2022-08-21T06:48:21;3.00;;;2.35;;
13989;SDS011;7069;52.528;13.316;2022-08-21T06:50:48;4.70;;;2.78;;
13989;SDS011;7069;52.528;13.316;2022-08-21T06:53:14;6.00;;;2.58;;
13989;SDS011;7069;52.528;13.316;2022-08-21T06:55:41;3.80;;;2.70;;
13989;SDS011;7069;52.528;13.316;2022-08-21T06:58:08;8.13;;;2.95;;
13989;SDS011;7069;52.528;13.316;2022-08-21T07:00:35;4.53;;;2.65;;
13989;SDS011;7069;52.528;13.316;2022-08-21T07:03:04;5.80;;;2.90;;
13989;SDS011;7069;52.528;13.316;2022-08-21T07:05:31;5.30;;;3.08;;
13989;SDS011;7069;52.528;13.316;2022-08-21T07:07:58;3.83;;;2.42;;
13989;SDS011;7069;52.528;13.316;2022-08-21T07:10:24;3.50;;;2.40;;
13989;SDS011;7069;52.528;13.316;2022-08-21T07:12:51;6.55;;;2.05;;
13989;SDS011;7069;52.528;13.316;2022-08-21T07:15:19;4.05;;;2.47;;
13989;SDS011;7069;52.528;13.316;2022-08-21T07:17:45;4.63;;;2.33;;
13989;SDS011;7069;52.528;13.316;2022-08-21T07:20:11;2.83;;;1.90;;
13989;SDS011;7069;52.528;13.316;2022-08-21T07:22:39;6.53;;;2.55;;
13989;SDS011;7069;52.528;13.316;2022-08-21T07:25:06;5.35;;;2.50;;
13989;SDS011;7069;52.528;13.316;2022-08-21T07:27:33;7.00;;;2.78;;
13989;SDS011;7069;52.528;13.316;2022-08-21T07:29:59;4.22;;;2.72;;
13989;SDS011;7069;52.528;13.316;2022-08-21T07:32:25;5.65;;;2.75;;
13989;SDS011;7069;52.528;13.316;2022-08-21T07:34:52;3.60;;;2.47;;
13989;SDS011;7069;52.528;13.316;2022-08-21T07:37:18;5.47;;;2.33;;
13989;SDS011;7069;52.528;13.316;2022-08-21T07:39:46;2.58;;;2.10;;
13989;SDS011;7069;52.528;13.316;2022-08-21T07:42:13;3.13;;;1.88;;
13989;SDS011;7069;52.528;13.316;2022-08-21T07:44:40;6.57;;;2.28;;
13989;SDS011;7069;52.528;13.316;2022-08-21T07:47:06;4.47;;;2.63;;
13989;SDS011;7069;52.528;13.316;2022-08-21T07:49:33;3.80;;;2.30;;
13989;SDS011;7069;52.528;13.316;2022-08-21T07:51:59;4.72;;;2.38;;
13989;SDS011;7069;52.528;13.316;2022-08-21T07:54:26;6.60;;;2.50;;
13989;SDS011;7069;52.528;13.316;2022-08-21T07:56:53;4.68;;;2.17;;
13989;SDS011;7069;52.528;13.316;2022-08-21T07:59:20;6.32;;;2.78;;
13989;SDS011;7069;52.528;13.316;2022-08-21T08:01:46;5.20;;;2.58;;
13989;SDS011;7069;52.528;13.316;2022-08-21T08:04:13;5.80;;;3.03;;
13989;SDS011;7069;52.528;13.316;2022-08-21T08:06:40;5.10;;;2.58;;
13989;SDS011;7069;52.528;13.316;2022-08-21T08:09:07;6.85;;;2.60;;
13989;SDS011;7069;52.528;13.316;2022-08-21T08:11:33;4.50;;;2.30;;
13989;SDS011;7069;52.528;13.316;2022-08-21T08:14:01;3.85;;;2.08;;
13989;SDS011;7069;52.528;13.316;2022-08-21T08:16:28;3.65;;;2.22;;
13989;SDS011;7069;52.528;13.316;2022-08-21T08:18:55;7.75;;;2.67;;
13989;SDS011;7069;52.528;13.316;2022-08-21T08:21:21;4.60;;;1.95;;
13989;SDS011;7069;52.528;13.316;2022-08-21T08:23:48;3.58;;;1.92;;
13989;SDS011;7069;52.528;13.316;2022-08-21T08:26:14;3.55;;;1.80;;
13989;SDS011;7069;52.528;13.316;2022-08-21T08:28:41;4.53;;;1.73;;
13989;SDS011;7069;52.528;13.316;2022-08-21T08:31:09;2.97;;;1.30;;
13989;SDS011;7069;52.528;13.316;2022-08-21T08:33:35;4.00;;;2.22;;
13989;SDS011;7069;52.528;13.316;2022-08-21T08:36:02;5.80;;;2.45;;
13989;SDS011;7069;52.528;13.316;2022-08-21T08:38:28;4.78;;;1.67;;
13989;SDS011;7069;52.528;13.316;2022-08-21T08:40:56;4.03;;;2.15;;
13989;SDS011;7069;52.528;13.316;2022-08-21T08:43:25;5.90;;;1.95;;
13989;SDS011;7069;52.528;13.316;2022-08-21T08:45:51;7.45;;;2.10;;
13989;SDS011;7069;52.528;13.316;2022-08-21T08:48:26;7.00;;;2.20;;
13989;SDS011;7069;52.528;13.316;2022-08-21T08:50:58;5.22;;;2.17;;
13989;SDS011;7069;52.528;13.316;2022-08-21T08:53:28;3.15;;;1.63;;
13989;SDS011;7069;52.528;13.316;2022-08-21T08:55:56;7.95;;;2.10;;
13989;SDS011;7069;52.528;13.316;2022-08-21T08:58:25;2.78;;;1.67;;
13989;SDS011;7069;52.528;13.316;2022-08-21T09:00:53;3.55;;;1.90;;
13989;SDS011;7069;52.528;13.316;2022-08-21T09:03:20;2.10;;;1.60;;
13989;SDS011;7069;52.528;13.316;2022-08-21T09:05:50;2.67;;;1.48;;
13989;SDS011;7069;52.528;13.316;2022-08-21T09:08:27;1.90;;;1.40;;
13989;SDS011;7069;52.528;13.316;2022-08-21T09:10:57;2.92;;;1.80;;
13989;SDS011;7069;52.528;13.316;2022-08-21T09:13:29;3.30;;;1.58;;
13989;SDS011;7069;52.528;13.316;2022-08-21T09:16:00;4.10;;;2.42;;
13989;SDS011;7069;52.528;13.316;2022-08-21T09:18:33;2.33;;;1.83;;
13989;SDS011;7069;52.528;13.316;2022-08-21T09:21:09;2.08;;;1.33;;
13989;SDS011;7069;52.528;13.316;2022-08-21T09:23:40;3.08;;;1.58;;
13989;SDS011;7069;52.528;13.316;2022-08-21T09:26:11;5.32;;;1.70;;
13989;SDS011;7069;52.528;13.316;2022-08-21T09:28:38;3.60;;;1.30;;
13989;SDS011;7069;52.528;13.316;2022-08-21T09:31:06;4.82;;;1.85;;
13989;SDS011;7069;52.528;13.316;2022-08-21T09:33:33;3.00;;;1.33;;
13989;SDS011;7069;52.528;13.316;2022-08-21T09:35:59;3.10;;;1.20;;
13989;SDS011;7069;52.528;13.316;2022-08-21T09:38:29;1.88;;;1.65;;
13989;SDS011;7069;52.528;13.316;2022-08-21T09:40:57;4.05;;;1.33;;
13989;SDS011;7069;52.528;13.316;2022-08-21T09:43:25;3.88;;;2.20;;
13989;SDS011;7069;52.528;13.316;2022-08-21T09:46:01;4.10;;;1.88;;
13989;SDS011;7069;52.528;13.316;2022-08-21T09:48:28;3.00;;;1.92;;
13989;SDS011;7069;52.528;13.316;2022-08-21T09:51:05;3.90;;;1.92;;
13989;SDS011;7069;52.528;13.316;2022-08-21T09:53:33;1.35;;;1.25;;
13989;SDS011;7069;52.528;13.316;2022-08-21T09:56:01;2.35;;;2.10;;
13989;SDS011;7069;52.528;13.316;2022-08-21T09:58:46;4.95;;;2.35;;
13989;SDS011;7069;52.528;13.316;2022-08-21T10:01:14;3.38;;;1.80;;
13989;SDS011;7069;52.528;13.316;2022-08-21T10:03:40;2.80;;;2.03;;
13989;SDS011;7069;52.528;13.316;2022-08-21T10:06:07;2.97;;;1.63;;
13989;SDS011;7069;52.528;13.316;2022-08-21T10:08:37;2.60;;;2.00;;
13989;SDS011;7069;52.528;13.316;2022-08-21T10:11:04;4.55;;;2.22;;
13989;SDS011;7069;52.528;13.316;2022-08-21T10:13:36;4.55;;;2.63;;
13989;SDS011;7069;52.528;13.316;2022-08-21T10:16:11;3.35;;;2.13;;
13989;SDS011;7069;52.528;13.316;2022-08-21T10:18:41;5.32;;;2.45;;
13989;SDS011;7069;52.528;13.316;2022-08-21T10:21:10;3.60;;;2.25;;
13989;SDS011;7069;52.528;13.316;2022-08-21T10:23:45;3.60;;;2.15;;
13989;SDS011;7069;52.528;13.316;2022-08-21T10:26:17;9.70;;;1.88;;
13989;SDS011;7069;52.528;13.316;2022-08-21T10:28:49;5.18;;;2.38;;
13989;SDS011;7069;52.528;13.316;2022-08-21T10:31:18;4.70;;;2.00;;
13989;SDS011;7069;52.528;13.316;2022-08-21T10:33:51;2.00;;;1.58;;
13989;SDS011;7069;52.528;13.316;2022-08-21T10:36:21;2.97;;;1.58;;
13989;SDS011;7069;52.528;13.316;2022-08-21T10:38:57;2.95;;;1.30;;
13989;SDS011;7069;52.528;13.316;2022-08-21T10:41:28;3.80;;;1.35;;
13989;SDS011;7069;52.528;13.316;2022-08-21T10:44:00;1.90;;;1.27;;
13989;SDS011;7069;52.528;13.316;2022-08-21T10:46:37;1.30;;;1.17;;
13989;SDS011;7069;52.528;13.316;2022-08-21T10:49:09;2.83;;;1.13;;
13989;SDS011;7069;52.528;13.316;2022-08-21T10:51:40;1.20;;;1.10;;
13989;SDS011;7069;52.528;13.316;2022-08-21T10:54:09;2.00;;;1.27;;
13989;SDS011;7069;52.528;13.316;2022-08-21T10:56:40;2.20;;;1.10;;
13989;SDS011;7069;52.528;13.316;2022-08-21T10:59:18;1.25;;;1.10;;
13989;SDS011;7069;52.528;13.316;2022-08-21T11:01:46;1.85;;;1.05;;
13989;SDS011;7069;52.528;13.316;2022-08-21T11:04:16;0.80;;;0.80;;
13989;SDS011;7069;52.528;13.316;2022-08-21T11:06:45;2.55;;;1.98;;
13989;SDS011;7069;52.528;13.316;2022-08-21T11:09:14;1.70;;;1.45;;
13989;SDS011;7069;52.528;13.316;2022-08-21T11:11:44;2.70;;;1.08;;
13989;SDS011;7069;52.528;13.316;2022-08-21T11:14:13;1.75;;;1.48;;
13989;SDS011;7069;52.528;13.316;2022-08-21T11:16:44;2.60;;;1.25;;
13989;SDS011;7069;52.528;13.316;2022-08-21T11:19:13;4.40;;;1.95;;
13989;SDS011;7069;52.528;13.316;2022-08-21T11:21:42;1.98;;;1.42;;
13989;SDS011;7069;52.528;13.316;2022-08-21T11:24:24;2.15;;;1.35;;
13989;SDS011;7069;52.528;13.316;2022-08-21T11:26:54;1.20;;;0.90;;
13989;SDS011;7069;52.528;13.316;2022-08-21T11:29:25;1.75;;;1.20;;
13989;SDS011;7069;52.528;13.316;2022-08-21T11:31:56;1.75;;;1.08;;
13989;SDS011;7069;52.528;13.316;2022-08-21T11:34:29;3.20;;;1.20;;
13989;SDS011;7069;52.528;13.316;2022-08-21T11:37:01;2.67;;;1.27;;
13989;SDS011;7069;52.528;13.316;2022-08-21T11:39:34;1.40;;;1.00;;
13989;SDS011;7069;52.528;13.316;2022-08-21T11:42:06;1.98;;;1.00;;
13989;SDS011;7069;52.528;13.316;2022-08-21T11:44:38;3.90;;;1.08;;
13989;SDS011;7069;52.528;13.316;2022-08-21T11:47:09;1.23;;;0.80;;
13989;SDS011;7069;52.528;13.316;2022-08-21T11:49:46;2.45;;;1.02;;
13989;SDS011;7069;52.528;13.316;2022-08-21T11:52:16;2.08;;;0.82;;
13989;SDS011;7069;52.528;13.316;2022-08-21T11:54:49;1.48;;;0.77;;
13989;SDS011;7069;52.528;13.316;2022-08-21T11:57:20;1.08;;;0.80;;
13989;SDS011;7069;52.528;13.316;2022-08-21T11:59:48;2.15;;;1.13;;
13989;SDS011;7069;52.528;13.316;2022-08-21T12:02:17;2.88;;;1.25;;
13989;SDS011;7069;52.528;13.316;2022-08-21T12:04:45;1.77;;;1.40;;
13989;SDS011;7069;52.528;13.316;2022-08-21T12:07:13;3.00;;;1.58;;
13989;SDS011;7069;52.528;13.316;2022-08-21T12:09:50;3.83;;;1.45;;
13989;SDS011;7069;52.528;13.316;2022-08-21T12:12:24;2.13;;;1.15;;
13989;SDS011;7069;52.528;13.316;2022-08-21T12:14:51;3.03;;;1.40;;
13989;SDS011;7069;52.528;13.316;2022-08-21T12:17:34;4.88;;;1.50;;
13989;SDS011;7069;52.528;13.316;2022-08-21T12:20:02;2.00;;;1.60;;
13989;SDS011;7069;52.528;13.316;2022-08-21T12:22:40;3.00;;;1.17;;
13989;SDS011;7069;52.528;13.316;2022-08-21T12:25:08;3.72;;;1.35;;
13989;SDS011;7069;52.528;13.316;2022-08-21T12:27:47;3.38;;;1.45;;
13989;SDS011;7069;52.528;13.316;2022-08-21T12:30:20;2.67;;;1.33;;
13989;SDS011;7069;52.528;13.316;2022-08-21T12:32:54;4.03;;;1.45;;
13989;SDS011;7069;52.528;13.316;2022-08-21T12:35:23;2.63;;;1.33;;
13989;SDS011;7069;52.528;13.316;2022-08-21T12:37:52;3.05;;;1.45;;
13989;SDS011;7069;52.528;13.316;2022-08-21T12:40:23;4.93;;;1.45;;
13989;SDS011;7069;52.528;13.316;2022-08-21T12:42:53;3.60;;;1.08;;
13989;SDS011;7069;52.528;13.316;2022-08-21T12:45:22;5.50;;;1.50;;
13989;SDS011;7069;52.528;13.316;2022-08-21T12:47:51;1.23;;;1.13;;
13989;SDS011;7069;52.528;13.316;2022-08-21T12:50:21;3.45;;;1.58;;
13989;SDS011;7069;52.528;13.316;2022-08-21T12:52:51;2.45;;;1.40;;
13989;SDS011;7069;52.528;13.316;2022-08-21T12:55:25;1.92;;;1.65;;
13989;SDS011;7069;52.528;13.316;2022-08-21T12:57:53;3.38;;;1.30;;
13989;SDS011;7069;52.528;13.316;2022-08-21T13:00:20;4.82;;;1.60;;
13989;SDS011;7069;52.528;13.316;2022-08-21T13:02:48;4.88;;;1.92;;
13989;SDS011;7069;52.528;13.316;2022-08-21T13:05:16;1.40;;;1.20;;
13989;SDS011;7069;52.528;13.316;2022-08-21T13:07:46;2.13;;;1.50;;
13989;SDS011;7069;52.528;13.316;2022-08-21T13:10:14;2.15;;;1.30;;
13989;SDS011;7069;52.528;13.316;2022-08-21T13:12:42;3.75;;;1.90;;
13989;SDS011;7069;52.528;13.316;2022-08-21T13:15:11;3.58;;;1.65;;
13989;SDS011;7069;52.528;13.316;2022-08-21T13:17:38;2.22;;;1.27;;
13989;SDS011;7069;52.528;13.316;2022-08-21T13:20:06;3.13;;;1.65;;
13989;SDS011;7069;52.528;13.316;2022-08-21T13:22:39;2.40;;;1.85;;
13989;SDS011;7069;52.528;13.316;2022-08-21T13:25:08;3.25;;;1.60;;
13989;SDS011;7069;52.528;13.316;2022-08-21T13:27:35;6.72;;;2.00;;
13989;SDS011;7069;52.528;13.316;2022-08-21T13:30:09;4.22;;;2.50;;
13989;SDS011;7069;52.528;13.316;2022-08-21T13:32:39;2.83;;;1.65;;
13989;SDS011;7069;52.528;13.316;2022-08-21T13:35:13;8.10;;;2.50;;
13989;SDS011;7069;52.528;13.316;2022-08-21T13:37:40;3.55;;;2.35;;
13989;SDS011;7069;52.528;13.316;2022-08-21T13:40:07;3.63;;;2.83;;
13989;SDS011;7069;52.528;13.316;2022-08-21T13:42:35;3.42;;;2.65;;
13989;SDS011;7069;52.528;13.316;2022-08-21T13:45:04;2.35;;;1.75;;
13989;SDS011;7069;52.528;13.316;2022-08-21T13:47:38;3.95;;;2.20;;
13989;SDS011;7069;52.528;13.316;2022-08-21T13:50:05;3.60;;;1.88;;
13989;SDS011;7069;52.528;13.316;2022-08-21T13:52:32;4.93;;;2.00;;
13989;SDS011;7069;52.528;13.316;2022-08-21T13:54:59;2.65;;;2.10;;
13989;SDS011;7069;52.528;13.316;2022-08-21T13:57:27;7.20;;;2.10;;
13989;SDS011;7069;52.528;13.316;2022-08-21T14:00:09;2.97;;;2.15;;
13989;SDS011;7069;52.528;13.316;2022-08-21T14:02:38;3.83;;;2.30;;
13989;SDS011;7069;52.528;13.316;2022-08-21T14:05:06;2.25;;;1.80;;
13989;SDS011;7069;52.528;13.316;2022-08-21T14:07:33;5.40;;;2.85;;
13989;SDS011;7069;52.528;13.316;2022-08-21T14:10:01;3.92;;;1.98;;
13989;SDS011;7069;52.528;13.316;2022-08-21T14:12:28;1.85;;;1.73;;
13989;SDS011;7069;52.528;13.316;2022-08-21T14:14:55;2.42;;;1.90;;
13989;SDS011;7069;52.528;13.316;2022-08-21T14:17:26;2.85;;;1.60;;
13989;SDS011;7069;52.528;13.316;2022-08-21T14:19:54;5.72;;;3.00;;
13989;SDS011;7069;52.528;13.316;2022-08-21T14:22:27;4.88;;;3.03;;
13989;SDS011;7069;52.528;13.316;2022-08-21T14:24:58;3.78;;;3.08;;
13989;SDS011;7069;52.528;13.316;2022-08-21T14:27:25;4.22;;;2.60;;
13989;SDS011;7069;52.528;13.316;2022-08-21T14:29:56;6.88;;;2.85;;
13989;SDS011;7069;52.528;13.316;2022-08-21T14:32:23;5.13;;;2.38;;
13989;SDS011;7069;52.528;13.316;2022-08-21T14:34:51;2.90;;;1.85;;
13989;SDS011;7069;52.528;13.316;2022-08-21T14:37:19;3.90;;;2.08;;
13989;SDS011;7069;52.528;13.316;2022-08-21T14:39:46;3.58;;;1.90;;
13989;SDS011;7069;52.528;13.316;2022-08-21T14:42:12;3.67;;;1.98;;
13989;SDS011;7069;52.528;13.316;2022-08-21T14:44:38;4.10;;;2.03;;
13989;SDS011;7069;52.528;13.316;2022-08-21T14:47:06;6.40;;;2.50;;
13989;SDS011;7069;52.528;13.316;2022-08-21T14:49:32;3.40;;;2.67;;
13989;SDS011;7069;52.528;13.316;2022-08-21T14:51:59;3.20;;;1.88;;
13989;SDS011;7069;52.528;13.316;2022-08-21T14:54:28;5.38;;;2.22;;